Time;durP1;ratioP1;P1;durP2;ratioP2;P2;SDS_P1;SDS_P2;PMS_P1;PMS_P2;Temp;Humidity;BMP_temperature;BMP_pressure;BME280_temperature;BME280_humidity;BME280_pressure;Samples;Min_cycle;Max_cycle;Signal;HPM_P1;HPM_P2
2021/03/16 14:30:23;;;;;;;31.82;17.48;;;;;;;6.14;77.29;99340.70;1826481;77;22537;-73
2021/03/16 14:33:11;;;;;;;40.03;18.17;;;;;;;5.98;77.77;99342.38;1783654;80;21045;-69
2021/03/16 14:35:59;;;;;;;35.25;17.25;;;;;;;5.89;78.20;99334.61;1782147;80;21259;-70
2021/03/16 14:38:48;;;;;;;34.15;16.35;;;;;;;5.84;78.42;99335.25;1779410;80;21100;-68
2021/03/16 14:41:36;;;;;;;38.42;15.55;;;;;;;5.80;78.56;99338.89;1785844;80;21001;-69
2021/03/16 14:44:23;;;;;;;44.33;15.65;;;;;;;5.81;78.86;99344.44;1779982;80;21239;-69
2021/03/16 14:47:11;;;;;;;40.67;14.05;;;;;;;5.81;78.48;99342.31;1785294;80;21068;-69
2021/03/16 14:49:58;;;;;;;27.80;12.55;;;;;;;5.76;78.26;99343.81;1791905;79;21634;-63
2021/03/16 14:52:45;;;;;;;29.65;12.93;;;;;;;5.71;78.25;99341.91;1786964;78;20945;-66
2021/03/16 14:55:34;;;;;;;27.80;12.15;;;;;;;5.64;78.24;99344.39;1787173;80;21023;-69
2021/03/16 14:58:21;;;;;;;34.33;12.53;;;;;;;5.58;78.25;99347.28;1778566;80;21100;-69
2021/03/16 15:01:08;;;;;;;27.50;11.97;;;;;;;5.57;78.37;99362.40;1787854;80;21024;-67
2021/03/16 15:03:55;;;;;;;35.13;12.47;;;;;;;5.53;78.14;99344.91;1789231;80;21701;-69
2021/03/16 15:06:41;;;;;;;27.25;11.15;;;;;;;5.48;78.25;99353.78;1782531;80;21677;-72
2021/03/16 15:09:28;;;;;;;26.77;10.32;;;;;;;5.42;78.41;99352.31;1779947;78;21191;-69
2021/03/16 15:12:19;;;;;;;24.23;11.38;;;;;;;5.36;78.35;99357.75;1782091;78;21070;-72
2021/03/16 15:15:08;;;;;;;33.92;10.48;;;;;;;5.28;78.53;99354.22;1784286;80;21024;-74
2021/03/16 15:17:55;;;;;;;37.53;11.05;;;;;;;5.21;78.66;99362.30;1781022;80;21197;-70
2021/03/16 15:20:45;;;;;;;25.92;9.55;;;;;;;5.14;78.71;99365.64;1785020;80;21198;-77
2021/03/16 15:23:32;;;;;;;29.98;9.38;;;;;;;5.06;78.90;99365.14;1791493;80;21072;-71
2021/03/16 15:26:19;;;;;;;32.30;10.50;;;;;;;5.01;79.17;99377.41;1781769;80;21587;-73
2021/03/16 15:29:06;;;;;;;25.17;9.93;;;;;;;4.97;78.97;99381.02;1785498;80;21067;-71
2021/03/16 15:31:54;;;;;;;32.53;10.43;;;;;;;4.89;79.15;99371.03;1787806;80;21261;-73
2021/03/16 15:34:41;;;;;;;28.42;8.80;;;;;;;4.84;79.35;99376.00;1763842;80;21069;-74
2021/03/16 15:37:31;;;;;;;26.87;8.75;;;;;;;4.82;79.55;99377.35;1784263;80;21869;-70
2021/03/16 15:40:18;;;;;;;25.23;8.80;;;;;;;4.78;79.48;99369.39;1757740;80;20976;-75
2021/03/16 15:43:05;;;;;;;17.90;8.40;;;;;;;4.75;79.50;99366.10;1756662;80;21487;-75
2021/03/16 15:45:52;;;;;;;21.93;8.88;;;;;;;4.71;79.43;99374.42;1722394;83;22106;-72
2021/03/16 15:48:42;;;;;;;31.68;7.97;;;;;;;4.63;79.45;99386.34;1719839;83;22378;-75
2021/03/16 15:51:30;;;;;;;29.57;8.83;;;;;;;4.58;79.44;99386.14;1720763;81;20998;-67
2021/03/16 15:54:17;;;;;;;21.77;8.63;;;;;;;4.51;79.48;99385.56;1723199;81;21071;-75
2021/03/16 15:57:04;;;;;;;17.50;8.30;;;;;;;4.46;79.67;99390.06;1727479;81;21711;-75
2021/03/16 15:59:52;;;;;;;29.92;9.95;;;;;;;4.41;79.62;99386.84;1728204;81;21365;-73
2021/03/16 16:02:39;;;;;;;32.28;12.05;;;;;;;4.35;79.60;99387.12;1724181;83;21028;-74
2021/03/16 16:05:26;;;;;;;37.67;13.90;;;;;;;4.28;79.63;99376.67;1724860;83;21088;-70
2021/03/16 16:08:14;;;;;;;29.60;10.43;;;;;;;4.20;79.82;99389.86;1734993;81;20961;-69
2021/03/16 16:11:02;;;;;;;23.25;11.80;;;;;;;4.14;79.91;99396.55;1721138;80;20905;-74
2021/03/16 16:13:48;;;;;;;31.80;14.63;;;;;;;4.08;80.16;99401.94;1740864;81;21389;-73
2021/03/16 16:16:35;;;;;;;30.72;14.93;;;;;;;4.05;80.34;99402.50;1740294;82;20957;-76
2021/03/16 16:19:22;;;;;;;24.77;14.40;;;;;;;4.02;80.19;99401.72;1739814;81;21056;-74
2021/03/16 16:22:11;;;;;;;24.37;13.60;;;;;;;3.99;80.33;99405.73;1737717;82;21013;-74
2021/03/16 16:24:58;;;;;;;28.50;13.90;;;;;;;3.96;80.22;99407.59;1743158;82;21612;-70
2021/03/16 16:27:44;;;;;;;;;;;;;;;3.92;80.52;99406.03;1752486;82;22611;-72
2021/03/16 16:30:31;;;;;;;38.15;21.17;;;;;;;3.88;80.51;99407.89;1741242;82;20134;-67
2021/03/16 16:33:19;;;;;;;33.83;19.10;;;;;;;3.83;80.59;99400.79;1785040;80;21021;-66
2021/03/16 16:36:06;;;;;;;30.43;18.02;;;;;;;3.83;80.60;99411.53;1788964;80;20998;-70
2021/03/16 16:38:55;;;;;;;30.88;16.30;;;;;;;3.81;80.53;99415.45;1789907;79;21614;-76
2021/03/16 16:41:42;;;;;;;34.23;17.50;;;;;;;3.80;80.78;99427.10;1789406;80;22570;-75
2021/03/16 16:44:31;;;;;;;35.35;20.10;;;;;;;3.79;80.59;99422.41;1789793;80;21071;-74
2021/03/16 16:47:18;;;;;;;42.13;22.52;;;;;;;3.77;80.75;99422.91;1785248;80;21575;-74
2021/03/16 16:50:07;;;;;;;39.70;20.15;;;;;;;3.73;80.90;99421.34;1786634;80;21076;-73
2021/03/16 16:52:54;;;;;;;33.30;19.23;;;;;;;3.72;80.93;99421.41;1788646;80;21024;-75
2021/03/16 16:55:41;;;;;;;41.65;20.72;;;;;;;3.67;81.00;99422.41;1786003;80;21549;-71
2021/03/16 16:58:27;;;;;;;35.03;17.62;;;;;;;3.62;81.19;99422.19;1787389;80;27684;-73
2021/03/16 17:01:14;;;;;;;47.73;26.60;;;;;;;3.58;81.43;99433.08;1789175;80;21467;-70
2021/03/16 17:04:01;;;;;;;44.67;25.00;;;;;;;3.54;81.65;99430.22;1781147;80;20902;-70
2021/03/16 17:06:48;;;;;;;46.60;24.63;;;;;;;3.49;81.90;99426.14;1788866;79;20969;-75
2021/03/16 17:09:37;;;;;;;46.92;24.07;;;;;;;3.42;82.10;99425.52;1786524;80;21068;-73
2021/03/16 17:12:23;;;;;;;42.05;23.45;;;;;;;3.37;82.38;99433.02;1791117;80;20934;-72
2021/03/16 17:15:13;;;;;;;39.98;22.00;;;;;;;3.32;82.58;99431.45;1790895;79;28637;-68
2021/03/16 17:17:59;;;;;;;54.53;25.80;;;;;;;3.28;82.87;99430.32;1790179;80;20940;-74
2021/03/16 17:20:46;;;;;;;43.60;24.47;;;;;;;3.23;83.16;99424.05;1788531;80;21669;-76
2021/03/16 17:23:35;;;;;;;47.45;26.85;;;;;;;3.18;83.43;99434.98;1785084;80;21369;-70
2021/03/16 17:26:23;;;;;;;51.85;25.85;;;;;;;3.16;83.76;99437.22;1787940;80;20934;-67
2021/03/16 17:29:09;;;;;;;56.15;28.77;;;;;;;3.13;83.99;99433.46;1789179;80;20996;-69
2021/03/16 17:31:56;;;;;;;39.63;26.40;;;;;;;3.14;84.17;99430.00;1784415;80;20915;-68
2021/03/16 17:34:43;;;;;;;41.05;25.15;;;;;;;3.16;84.35;99434.20;1785842;80;20926;-75
2021/03/16 17:37:30;;;;;;;43.48;22.02;;;;;;;3.17;84.43;99426.88;1787374;80;21271;-70
2021/03/16 17:40:18;;;;;;;40.75;22.45;;;;;;;3.18;84.55;99431.13;1784446;80;21079;-75
2021/03/16 17:43:05;;;;;;;31.68;19.10;;;;;;;3.21;84.57;99437.86;1786238;80;20928;-75
2021/03/16 17:45:52;;;;;;;36.30;18.73;;;;;;;3.24;84.60;99446.31;1787759;80;21032;-74
2021/03/16 17:48:40;;;;;;;37.40;18.77;;;;;;;3.26;84.50;99443.69;1787605;80;20973;-70
2021/03/16 17:51:28;;;;;;;34.35;19.30;;;;;;;3.29;84.45;99437.14;1784642;80;21436;-76
2021/03/16 17:54:15;;;;;;;36.10;17.45;;;;;;;3.30;84.30;99449.12;1786058;80;20959;-68
2021/03/16 17:57:02;;;;;;;29.57;16.40;;;;;;;3.29;84.28;99445.70;1787484;80;20940;-73
2021/03/16 17:59:50;;;;;;;34.63;18.30;;;;;;;3.32;84.12;99444.76;1785030;80;21570;-72
2021/03/16 18:02:37;;;;;;;32.58;17.62;;;;;;;3.31;83.68;99451.63;1786579;80;21053;-69
2021/03/16 18:05:30;;;;;;;41.00;18.45;;;;;;;3.28;83.50;99444.02;1785136;80;21535;-68
2021/03/16 18:08:19;;;;;;;37.80;17.95;;;;;;;3.25;83.40;99437.70;1786684;80;21012;-66
2021/03/16 18:11:07;;;;;;;47.70;20.82;;;;;;;3.23;83.45;99458.78;1784294;80;21021;-75
2021/03/16 18:13:54;;;;;;;37.60;19.32;;;;;;;3.21;83.25;99439.15;1787853;80;20908;-75
2021/03/16 18:16:40;;;;;;;;;;;;;;;3.21;83.43;99443.84;1790339;80;21002;-73
2021/03/16 18:19:28;;;;;;;34.80;22.32;;;;;;;3.19;83.23;99443.09;1785711;80;21650;-69
2021/03/16 18:22:15;;;;;;;38.85;23.12;;;;;;;3.18;83.11;99453.44;1787115;80;20945;-73
2021/03/16 18:25:05;;;;;;;43.52;25.88;;;;;;;3.15;83.21;99446.66;1784765;80;21503;-70
2021/03/16 18:27:57;;;;;;;34.83;21.25;;;;;;;3.13;83.03;99450.19;1786448;80;21482;-74
2021/03/16 18:30:41;;;;;;;34.43;23.70;;;;;;;3.08;82.99;99450.79;1787629;80;20992;-74
2021/03/16 18:33:28;;;;;;;43.58;22.22;;;;;;;3.06;83.06;99443.56;1787721;80;22306;-74
2021/03/16 18:36:14;;;;;;;38.00;22.77;;;;;;;3.06;83.17;99430.70;1787775;79;21340;-74
2021/03/16 18:39:01;;;;;;;36.98;20.40;;;;;;;3.07;83.27;99422.94;1787329;80;20932;-71
2021/03/16 18:41:48;;;;;;;27.58;18.23;;;;;;;3.08;83.03;99428.92;1787688;80;20944;-72
2021/03/16 18:44:35;;;;;;;36.17;20.65;;;;;;;3.07;82.85;99427.24;1787782;79;20921;-76
2021/03/16 18:47:23;;;;;;;27.05;16.60;;;;;;;3.05;82.92;99422.59;1787784;80;22340;-73
2021/03/16 18:50:13;;;;;;;26.97;15.72;;;;;;;3.06;82.86;99422.99;1788036;79;21038;-76
2021/03/16 18:53:03;;;;;;;27.10;15.65;;;;;;;3.05;82.64;99424.72;1788908;80;21077;-75
2021/03/16 18:55:52;;;;;;;25.80;15.63;;;;;;;3.03;82.67;99421.81;1788192;80;20996;-75
2021/03/16 18:58:46;;;;;;;29.55;17.30;;;;;;;3.01;82.93;99419.30;1766218;80;21505;-76
2021/03/16 19:01:34;;;;;;;31.07;15.75;;;;;;;3.01;82.75;99421.86;1787561;79;21191;-76
2021/03/16 19:04:22;;;;;;;28.73;17.15;;;;;;;3.01;82.79;99425.72;1787360;80;20992;-76
2021/03/16 19:07:09;;;;;;;29.00;17.02;;;;;;;3.01;82.67;99432.16;1784570;80;20992;-71
2021/03/16 19:09:55;;;;;;;20.82;15.03;;;;;;;2.99;82.75;99433.49;1785927;79;21012;-67
2021/03/16 19:12:42;;;;;;;17.92;13.95;;;;;;;3.01;82.56;99441.16;1785599;80;21614;-68
2021/03/16 19:15:29;;;;;;;19.60;13.45;;;;;;;3.01;82.36;99425.72;1786917;80;21070;-67
2021/03/16 19:18:17;;;;;;;23.42;13.35;;;;;;;2.99;82.33;99422.36;1784281;80;21001;-67
2021/03/16 19:21:07;;;;;;;17.98;12.13;;;;;;;2.98;82.13;99428.40;1786136;80;20973;-72
2021/03/16 19:23:54;;;;;;;22.13;13.43;;;;;;;2.96;82.12;99423.75;1783876;80;20990;-71
2021/03/16 19:26:41;;;;;;;16.73;12.30;;;;;;;2.96;82.16;99427.61;1785391;80;21035;-75
2021/03/16 19:29:27;;;;;;;17.07;12.78;;;;;;;2.95;82.05;99432.36;1786906;80;22082;-72
2021/03/16 19:32:17;;;;;;;16.27;10.53;;;;;;;2.93;82.14;99440.58;1784376;80;21006;-76
2021/03/16 19:35:08;;;;;;;18.77;11.08;;;;;;;2.93;82.00;99443.14;1787607;80;22206;-76
2021/03/16 19:37:57;;;;;;;18.10;10.10;;;;;;;2.94;81.75;99430.69;1784488;80;21546;-72
2021/03/16 19:40:50;;;;;;;15.45;10.50;;;;;;;2.93;81.65;99434.14;1769605;80;21545;-75
2021/03/16 19:43:37;;;;;;;20.30;10.40;;;;;;;2.92;81.69;99434.59;1781205;80;21211;-77
2021/03/16 19:46:24;;;;;;;25.35;10.80;;;;;;;2.93;81.59;99440.58;1787801;79;20941;-76
2021/03/16 19:49:16;;;;;;;19.23;12.20;;;;;;;2.95;81.64;99434.48;1807941;77;21332;-76
2021/03/16 19:52:05;;;;;;;16.93;11.30;;;;;;;2.98;81.40;99431.81;1807863;79;21703;-75
2021/03/16 19:54:51;;;;;;;12.93;8.88;;;;;;;3.00;81.01;99431.76;1809336;79;21221;-72
2021/03/16 19:57:39;;;;;;;13.15;8.85;;;;;;;2.97;80.85;99433.98;1786982;80;21200;-75
2021/03/16 20:00:26;;;;;;;12.35;9.18;;;;;;;2.94;80.98;99422.97;1786916;80;20969;-74
2021/03/16 20:03:14;;;;;;;22.70;10.35;;;;;;;2.94;81.14;99438.39;1786978;80;20955;-75
2021/03/16 20:06:00;;;;;;;21.82;10.48;;;;;;;2.96;81.06;99434.88;1791619;79;21461;-73
2021/03/16 20:08:47;;;;;;;18.48;9.70;;;;;;;2.98;81.09;99424.55;1802643;79;21023;-66
2021/03/16 20:11:36;;;;;;;18.07;9.48;;;;;;;3.00;80.97;99429.19;1800172;79;20943;-73
2021/03/16 20:14:24;;;;;;;16.20;9.85;;;;;;;3.03;80.87;99430.81;1803144;79;20939;-72
2021/03/16 20:17:12;;;;;;;16.05;9.28;;;;;;;3.05;80.78;99426.01;1803479;79;20986;-70
2021/03/16 20:19:59;;;;;;;17.20;9.05;;;;;;;3.08;80.62;99428.92;1806672;79;21026;-73
2021/03/16 20:22:45;;;;;;;17.98;10.15;;;;;;;3.07;80.48;99429.37;1806021;79;22620;-76
2021/03/16 20:25:34;;;;;;;15.30;9.30;;;;;;;3.08;80.57;99421.20;1808166;79;22033;-76
2021/03/16 20:28:21;;;;;;;16.37;8.70;;;;;;;3.09;80.46;99425.45;1802811;79;21022;-73
2021/03/16 20:31:08;;;;;;;16.40;8.83;;;;;;;3.09;80.29;99419.87;1803591;79;21057;-72
2021/03/16 20:33:55;;;;;;;16.70;9.20;;;;;;;3.11;80.35;99422.39;1804287;79;21509;-76
2021/03/16 20:36:42;;;;;;;15.85;9.18;;;;;;;3.13;80.44;99421.89;1802781;79;21023;-76
2021/03/16 20:39:31;;;;;;;17.37;9.65;;;;;;;3.16;80.26;99421.33;1803357;79;21198;-76
2021/03/16 20:42:18;;;;;;;19.52;8.83;;;;;;;3.19;80.14;99419.09;1806399;79;21624;-76
2021/03/16 20:45:09;;;;;;;16.90;9.58;;;;;;;3.21;80.11;99417.28;1801806;79;20931;-75
2021/03/16 20:47:57;;;;;;;22.65;12.25;;;;;;;3.21;80.06;99420.69;1798287;78;20947;-75
2021/03/16 20:50:44;;;;;;;18.17;11.63;;;;;;;3.22;80.25;99416.39;1807523;78;21556;-73
2021/03/16 20:53:31;;;;;;;23.42;13.78;;;;;;;3.24;80.23;99423.60;1783983;80;22140;-74
2021/03/16 20:56:17;;;;;;;;;;;;;;;3.26;80.19;99416.22;1802453;79;20904;-73
2021/03/16 20:59:04;;;;;;;24.85;13.55;;;;;;;3.26;79.67;99420.53;1799817;79;20498;-74
2021/03/16 21:01:51;;;;;;;21.40;13.13;;;;;;;3.22;79.83;99413.81;1794949;79;21016;-74
2021/03/16 21:04:39;;;;;;;22.52;11.65;;;;;;;3.19;80.04;99404.50;1784234;79;21629;-75
2021/03/16 21:07:25;;;;;;;;;;;;;;;3.20;80.06;99412.58;1786979;79;22087;-75
2021/03/16 21:10:15;;;;;;;23.83;11.50;;;;;;;3.16;79.90;99408.47;1784840;79;20169;-75
2021/03/16 21:13:02;;;;;;;21.40;11.75;;;;;;;3.11;80.04;99401.36;1788055;79;21011;-76
2021/03/16 21:15:49;;;;;;;21.35;11.43;;;;;;;3.12;80.14;99408.63;1779898;79;21592;-74
2021/03/16 21:18:37;;;;;;;15.68;10.28;;;;;;;3.11;80.03;99406.50;1788371;79;20930;-76
2021/03/16 21:21:24;;;;;;;18.17;11.45;;;;;;;3.10;79.97;99407.84;1781682;79;22186;-69
2021/03/16 21:24:11;;;;;;;18.48;11.33;;;;;;;3.09;80.27;99404.88;1784867;79;21007;-71
2021/03/16 21:26:58;;;;;;;16.32;11.05;;;;;;;3.11;79.97;99403.09;1779406;79;21066;-73
2021/03/16 21:29:44;;;;;;;33.78;12.40;;;;;;;3.12;79.92;99403.05;1737687;82;20984;-70
2021/03/16 21:32:31;;;;;;;;;;;;;;;3.13;79.95;99402.15;1740334;82;20995;-74
2021/03/16 21:35:18;;;;;;;12.03;8.90;;;;;;;3.16;79.84;99399.91;1737902;82;22193;-75
2021/03/16 21:38:10;;;;;;;17.27;11.20;;;;;;;3.16;79.70;99404.61;1737815;82;21011;-76
2021/03/16 21:40:57;;;;;;;21.12;10.70;;;;;;;3.16;79.55;99396.89;1737714;82;20960;-75
2021/03/16 21:43:44;;;;;;;18.07;10.60;;;;;;;3.17;79.49;99401.15;1737839;82;21564;-76
2021/03/16 21:46:33;;;;;;;14.63;10.05;;;;;;;3.17;79.62;99393.42;1737718;82;21454;-75
2021/03/16 21:49:22;;;;;;;14.58;10.03;;;;;;;3.20;79.70;99400.20;1728705;82;21431;-75
2021/03/16 21:52:08;;;;;;;13.18;9.60;;;;;;;3.22;79.48;99394.52;1740719;80;20933;-72
2021/03/16 21:54:55;;;;;;;16.75;10.15;;;;;;;3.23;79.49;99396.20;1770739;80;21589;-75
2021/03/16 21:57:41;;;;;;;14.15;9.83;;;;;;;3.24;79.46;99397.88;1765212;80;21016;-73
2021/03/16 22:00:28;;;;;;;11.95;10.43;;;;;;;3.22;79.55;99395.36;1767951;80;20948;-72
2021/03/16 22:03:15;;;;;;;15.90;9.45;;;;;;;3.21;79.51;99394.97;1770503;80;21667;-75
2021/03/16 22:06:03;;;;;;;16.55;10.18;;;;;;;3.19;79.59;99391.64;1765259;80;22142;-72
2021/03/16 22:08:49;;;;;;;14.80;9.58;;;;;;;3.17;79.71;99393.42;1770819;80;21051;-76
2021/03/16 22:11:37;;;;;;;16.45;8.80;;;;;;;3.15;79.75;99386.66;1769591;80;20972;-73
2021/03/16 22:14:24;;;;;;;18.05;9.85;;;;;;;3.15;79.89;99394.38;1772802;80;20984;-70
2021/03/16 22:17:10;;;;;;;;;;;;;;;3.14;79.93;99387.55;1779583;80;22310;-76
2021/03/16 22:19:58;;;;;;;18.20;8.63;;;;;;;3.14;79.97;99395.27;1758185;80;20217;-75
2021/03/16 22:22:46;;;;;;;17.62;10.38;;;;;;;3.09;79.99;99389.00;1767377;80;21598;-74
2021/03/16 22:25:33;;;;;;;15.78;9.75;;;;;;;3.05;80.17;99386.14;1767845;80;20988;-76
2021/03/16 22:28:20;;;;;;;16.30;9.75;;;;;;;3.05;80.22;99383.58;1770806;80;21056;-75
2021/03/16 22:31:07;;;;;;;14.33;9.40;;;;;;;3.05;80.25;99388.72;1767907;80;22646;-76
2021/03/16 22:33:53;;;;;;;19.77;9.83;;;;;;;3.04;80.31;99385.75;1764956;80;21585;-71
2021/03/16 22:36:40;;;;;;;;;;;;;;;3.04;80.40;99388.77;1773220;80;21648;-73
2021/03/16 22:39:27;;;;;;;13.60;9.60;;;;;;;3.03;80.41;99386.64;1771248;80;20127;-74
2021/03/16 22:42:15;;;;;;;17.57;10.55;;;;;;;3.01;80.61;99383.28;1768544;80;20897;-72
2021/03/16 22:45:02;;;;;;;;;;;;;;;3.01;80.49;99380.72;1774024;80;22119;-70
2021/03/16 22:47:49;;;;;;;18.42;10.08;;;;;;;3.03;80.53;99387.09;1785968;80;20599;-71
2021/03/16 22:50:37;;;;;;;19.82;9.65;;;;;;;2.99;80.56;99379.48;1786059;80;20980;-76
2021/03/16 22:53:25;;;;;;;17.75;9.90;;;;;;;2.97;80.43;99381.72;1786159;80;21490;-72
2021/03/16 22:56:11;;;;;;;18.67;10.60;;;;;;;2.94;80.82;99375.39;1786301;80;21621;-74
2021/03/16 22:58:58;;;;;;;14.20;9.98;;;;;;;2.95;80.84;99374.05;1786590;80;21357;-74
2021/03/16 23:01:45;;;;;;;17.10;10.28;;;;;;;2.97;80.76;99374.00;1779268;80;21435;-76
2021/03/16 23:04:33;;;;;;;17.80;10.08;;;;;;;2.97;80.60;99376.13;1770335;80;21015;-68
2021/03/16 23:07:20;;;;;;;22.67;10.35;;;;;;;2.96;80.57;99367.18;1764990;80;21016;-71
2021/03/16 23:10:11;;;;;;;17.37;9.83;;;;;;;2.95;80.54;99377.91;1768221;80;20948;-69
2021/03/16 23:12:58;;;;;;;18.95;10.20;;;;;;;2.96;80.57;99376.18;1771432;80;21273;-69
2021/03/16 23:15:45;;;;;;;14.15;10.48;;;;;;;2.95;80.38;99374.50;1766861;80;21649;-75
2021/03/16 23:18:33;;;;;;;19.60;9.93;;;;;;;2.94;80.53;99377.97;1770240;80;21007;-75
2021/03/16 23:21:20;;;;;;;20.57;11.68;;;;;;;2.94;80.55;99377.52;1764718;80;20988;-76
2021/03/16 23:24:08;;;;;;;12.20;9.73;;;;;;;2.95;80.50;99375.34;1760936;80;21147;-73
2021/03/16 23:26:54;;;;;;;20.35;10.38;;;;;;;2.96;80.40;99378.75;1767505;80;21367;-76
2021/03/16 23:29:41;;;;;;;16.75;11.03;;;;;;;2.95;80.42;99375.79;1771345;80;21000;-75
2021/03/16 23:32:28;;;;;;;16.15;10.30;;;;;;;2.97;80.31;99368.41;1766805;80;21541;-74
2021/03/16 23:35:17;;;;;;;15.70;9.95;;;;;;;2.98;80.28;99366.23;1769760;80;21059;-74
2021/03/16 23:38:05;;;;;;;17.82;10.23;;;;;;;3.00;80.14;99364.89;1765214;80;21039;-73
2021/03/16 23:40:52;;;;;;;17.55;9.90;;;;;;;3.00;79.93;99366.17;1762166;80;21358;-73
2021/03/16 23:43:40;;;;;;;15.50;9.70;;;;;;;2.97;79.93;99360.70;1771124;80;21012;-74
2021/03/16 23:46:28;;;;;;;17.07;9.43;;;;;;;2.96;79.94;99363.33;1767032;80;21020;-74
2021/03/16 23:49:15;;;;;;;13.83;9.33;;;;;;;2.94;80.00;99360.80;1769969;79;21048;-74
2021/03/16 23:52:02;;;;;;;17.85;9.18;;;;;;;2.94;79.93;99359.52;1763279;80;20984;-74
2021/03/16 23:54:49;;;;;;;15.23;9.88;;;;;;;2.97;79.85;99365.00;1774157;80;21440;-75
2021/03/16 23:57:35;;;;;;;22.60;9.55;;;;;;;2.97;79.64;99366.28;1769872;80;21052;-74
